createdAt,value
2023-01-15T00:02:27.669Z,9.30
2023-01-15T00:04:55.626Z,9.32
2023-01-15T00:07:23.464Z,9.33
2023-01-15T00:09:57.348Z,9.28
2023-01-15T00:12:25.211Z,9.39
2023-01-15T00:14:53.085Z,9.30
2023-01-15T00:17:23.729Z,9.38
2023-01-15T00:19:53.245Z,9.34
2023-01-15T00:22:20.926Z,9.38
2023-01-15T00:25:06.244Z,9.37
2023-01-15T00:27:39.995Z,9.42
2023-01-15T00:30:10.572Z,9.40
2023-01-15T00:32:39.687Z,9.42
2023-01-15T00:35:09.740Z,9.42
2023-01-15T00:37:39.332Z,9.41
2023-01-15T00:40:07.792Z,9.41
2023-01-15T00:42:35.410Z,9.54
2023-01-15T00:45:09.881Z,9.47
2023-01-15T00:47:39.608Z,9.49
2023-01-15T00:50:09.587Z,9.47
2023-01-15T00:52:37.367Z,9.48
2023-01-15T00:55:05.986Z,9.48
2023-01-15T00:57:33.808Z,9.56
2023-01-15T01:00:02.847Z,9.51
2023-01-15T01:02:30.485Z,9.51
2023-01-15T01:04:59.527Z,9.49
2023-01-15T01:07:27.386Z,9.57
2023-01-15T01:09:55.054Z,9.52
2023-01-15T01:12:24.628Z,9.46
2023-01-15T01:14:52.330Z,9.58
2023-01-15T01:17:20.087Z,9.46
2023-01-15T01:19:47.804Z,9.49
2023-01-15T01:22:16.752Z,9.50
2023-01-15T01:24:44.339Z,9.44
2023-01-15T01:27:13.172Z,9.49
2023-01-15T01:29:40.753Z,9.56
2023-01-15T01:32:08.267Z,9.43
2023-01-15T01:34:38.704Z,9.18
2023-01-15T01:37:10.531Z,9.09
2023-01-15T01:39:39.903Z,9.07
2023-01-15T01:42:13.365Z,8.92
2023-01-15T01:45:03.675Z,8.91
2023-01-15T01:47:34.664Z,9.06
2023-01-15T01:50:05.848Z,8.98
2023-01-15T01:52:36.497Z,9.00
2023-01-15T01:55:06.257Z,8.86
2023-01-15T01:57:33.892Z,8.75
2023-01-15T02:00:04.963Z,8.80
2023-01-15T02:02:32.878Z,8.94
2023-01-15T02:05:00.568Z,8.84
2023-01-15T02:07:28.131Z,8.70
2023-01-15T02:09:55.594Z,8.80
2023-01-15T02:12:28.042Z,8.85
2023-01-15T02:15:01.100Z,8.82
2023-01-15T02:17:34.973Z,8.91
2023-01-15T02:20:15.825Z,9.03
2023-01-15T02:22:56.026Z,8.79
2023-01-15T02:25:32.156Z,8.93
2023-01-15T02:28:05.593Z,8.81
2023-01-15T02:30:36.064Z,8.76
2023-01-15T02:33:07.089Z,8.74
2023-01-15T02:35:37.858Z,8.58
2023-01-15T02:38:08.454Z,8.63
2023-01-15T02:40:36.664Z,8.45
2023-01-15T02:43:06.359Z,8.45
2023-01-15T02:45:38.045Z,8.36
2023-01-15T02:48:09.626Z,8.21
2023-01-15T02:50:40.239Z,8.30
2023-01-15T02:53:10.266Z,8.30
2023-01-15T02:55:41.908Z,8.22
2023-01-15T02:58:12.955Z,8.13
2023-01-15T03:00:43.535Z,8.20
2023-01-15T03:03:15.415Z,8.11
2023-01-15T03:05:46.462Z,8.10
2023-01-15T03:08:14.019Z,8.02
2023-01-15T03:10:44.267Z,7.90
2023-01-15T03:13:17.177Z,7.98
2023-01-15T03:16:07.071Z,8.07
2023-01-15T03:18:38.336Z,8.09
2023-01-15T03:21:09.005Z,7.77
2023-01-15T03:23:37.748Z,7.63
2023-01-15T03:26:05.274Z,7.58
2023-01-15T03:28:36.597Z,7.46
2023-01-15T03:31:04.206Z,7.43
2023-01-15T03:33:31.929Z,7.32
2023-01-15T03:36:01.271Z,7.16
2023-01-15T03:38:30.751Z,7.40
2023-01-15T03:41:04.382Z,7.12
2023-01-15T03:43:43.212Z,7.16
2023-01-15T03:46:19.038Z,7.09
2023-01-15T03:48:54.345Z,7.08
2023-01-15T03:51:24.964Z,6.91
2023-01-15T03:53:54.914Z,6.85
2023-01-15T03:56:28.380Z,6.79
2023-01-15T03:59:00.659Z,6.63
2023-01-15T04:01:32.693Z,6.43
2023-01-15T04:04:01.095Z,6.46
2023-01-15T04:06:30.906Z,6.35
2023-01-15T04:08:59.000Z,6.37
2023-01-15T04:11:27.651Z,6.38
2023-01-15T04:13:55.356Z,6.43
2023-01-15T04:16:27.653Z,6.52
2023-01-15T04:18:55.399Z,6.35
2023-01-15T04:21:23.148Z,6.47
2023-01-15T04:23:51.101Z,6.23
2023-01-15T04:26:18.736Z,6.20
2023-01-15T04:28:46.194Z,6.04
2023-01-15T04:31:13.812Z,6.09
2023-01-15T04:33:42.656Z,6.26
2023-01-15T04:36:11.015Z,6.17
2023-01-15T04:38:38.917Z,5.99
2023-01-15T04:41:23.407Z,5.89
2023-01-15T04:44:09.225Z,5.98
2023-01-15T04:46:38.732Z,5.81
2023-01-15T04:49:09.913Z,5.92
2023-01-15T04:51:39.314Z,5.91
2023-01-15T04:54:07.816Z,6.07
2023-01-15T04:56:39.156Z,5.93
2023-01-15T04:59:06.675Z,6.02
2023-01-15T05:01:34.232Z,6.13
2023-01-15T05:04:01.974Z,5.94
2023-01-15T05:06:31.246Z,5.81
2023-01-15T05:08:58.759Z,5.77
2023-01-15T05:11:26.298Z,5.94
2023-01-15T05:13:54.305Z,5.90
2023-01-15T05:16:24.570Z,5.58
2023-01-15T05:18:52.866Z,5.63
2023-01-15T05:21:21.832Z,5.84
2023-01-15T05:23:51.826Z,5.63
2023-01-15T05:26:19.428Z,5.62
2023-01-15T05:28:46.994Z,5.57
2023-01-15T05:31:16.229Z,5.66
2023-01-15T05:33:44.334Z,5.66
2023-01-15T05:36:13.820Z,5.65
2023-01-15T05:38:41.698Z,5.66
2023-01-15T05:41:26.572Z,5.66
2023-01-15T05:43:54.054Z,5.51
2023-01-15T05:46:21.660Z,5.56
2023-01-15T05:48:49.369Z,5.43
2023-01-15T05:51:17.108Z,5.42
2023-01-15T05:53:44.602Z,5.42
2023-01-15T05:56:13.664Z,5.28
2023-01-15T05:58:41.120Z,5.36
2023-01-15T06:01:09.517Z,5.46
2023-01-15T06:03:37.496Z,5.53
2023-01-15T06:06:05.343Z,5.26
2023-01-15T06:08:32.885Z,5.30
2023-01-15T06:11:00.335Z,5.24
2023-01-15T06:13:29.191Z,5.49
2023-01-15T06:15:56.718Z,5.57
2023-01-15T06:18:24.684Z,5.35
2023-01-15T06:20:52.175Z,5.22
2023-01-15T06:23:19.832Z,5.12
2023-01-15T06:25:47.326Z,4.98
2023-01-15T06:28:14.789Z,5.08
2023-01-15T06:30:43.613Z,5.16
2023-01-15T06:33:11.073Z,5.04
2023-01-15T06:35:38.523Z,4.93
2023-01-15T06:38:06.052Z,4.89
2023-01-15T06:40:33.512Z,4.85
2023-01-15T06:43:18.550Z,4.93
2023-01-15T06:46:05.067Z,4.94
2023-01-15T06:48:32.586Z,4.95
2023-01-15T06:51:00.386Z,5.04
2023-01-15T06:53:27.988Z,5.02
2023-01-15T06:55:55.503Z,4.98
2023-01-15T06:58:23.200Z,4.95
2023-01-15T07:00:56.018Z,5.09
2023-01-15T07:03:24.210Z,5.29
2023-01-15T07:05:51.673Z,5.10
2023-01-15T07:08:19.159Z,5.04
2023-01-15T07:10:46.584Z,4.97
2023-01-15T07:13:14.078Z,4.84
2023-01-15T07:15:41.535Z,4.85
2023-01-15T07:18:10.399Z,4.85
2023-01-15T07:20:37.860Z,4.85
2023-01-15T07:23:05.316Z,4.84
2023-01-15T07:25:32.768Z,4.81
2023-01-15T07:28:00.198Z,4.85
2023-01-15T07:30:27.664Z,4.83
2023-01-15T07:32:57.220Z,4.89
2023-01-15T07:35:26.039Z,4.98
2023-01-15T07:37:53.528Z,4.97
2023-01-15T07:40:20.988Z,4.97
2023-01-15T07:43:06.037Z,5.10
2023-01-15T07:46:02.675Z,5.20
2023-01-15T07:48:47.769Z,5.12
2023-01-15T07:51:16.641Z,5.07
2023-01-15T07:53:44.166Z,5.08
2023-01-15T07:56:11.809Z,4.93
2023-01-15T07:58:39.276Z,4.99
2023-01-15T08:01:07.091Z,4.96
2023-01-15T08:03:34.646Z,4.91
2023-01-15T08:06:02.263Z,4.97
2023-01-15T08:08:31.242Z,5.04
2023-01-15T08:11:20.399Z,4.98
2023-01-15T08:14:05.674Z,5.07
2023-01-15T08:16:36.692Z,4.95
2023-01-15T08:19:04.519Z,5.00
2023-01-15T08:21:34.281Z,4.98
2023-01-15T08:24:03.934Z,5.07
2023-01-15T08:26:31.527Z,5.09
2023-01-15T08:29:00.584Z,5.04
2023-01-15T08:31:28.337Z,4.94
2023-01-15T08:33:55.967Z,4.93
2023-01-15T08:36:23.563Z,4.91
2023-01-15T08:38:51.099Z,4.97
2023-01-15T08:41:20.088Z,5.05
2023-01-15T08:43:47.964Z,4.95
2023-01-15T08:46:15.876Z,5.03
2023-01-15T08:48:44.595Z,5.06
2023-01-15T08:51:13.146Z,4.99
2023-01-15T08:53:43.391Z,5.04
2023-01-15T08:56:13.200Z,5.10
2023-01-15T08:58:43.765Z,4.92
2023-01-15T09:01:15.780Z,4.99
2023-01-15T09:03:43.712Z,5.06
2023-01-15T09:06:13.383Z,4.98
2023-01-15T09:08:41.607Z,5.03
2023-01-15T09:11:09.907Z,5.20
2023-01-15T09:13:38.068Z,5.31
2023-01-15T09:16:09.865Z,5.19
2023-01-15T09:18:39.009Z,5.09
2023-01-15T09:21:06.711Z,5.23
2023-01-15T09:23:34.173Z,5.09
2023-01-15T09:26:05.116Z,5.15
2023-01-15T09:28:33.299Z,5.05
2023-01-15T09:31:01.408Z,5.16
2023-01-15T09:33:30.244Z,5.29
2023-01-15T09:35:57.750Z,5.13
2023-01-15T09:38:25.313Z,5.20
2023-01-15T09:40:55.651Z,5.08
2023-01-15T09:43:31.588Z,5.18
2023-01-15T09:46:01.198Z,5.25
2023-01-15T09:48:37.574Z,5.11
2023-01-15T09:51:13.428Z,5.24
2023-01-15T09:53:54.630Z,5.34
2023-01-15T09:56:23.506Z,5.26
2023-01-15T09:58:51.892Z,5.22
2023-01-15T10:01:22.067Z,5.14
2023-01-15T10:03:55.010Z,5.20
2023-01-15T10:06:25.361Z,5.12
2023-01-15T10:08:58.989Z,5.14
2023-01-15T10:11:53.253Z,5.07
2023-01-15T10:14:39.175Z,5.27
2023-01-15T10:17:20.596Z,5.28
2023-01-15T10:19:49.521Z,5.26
2023-01-15T10:22:26.278Z,5.10
2023-01-15T10:24:57.452Z,5.15
2023-01-15T10:27:27.327Z,5.08
2023-01-15T10:29:59.003Z,5.11
2023-01-15T10:32:39.345Z,5.11
2023-01-15T10:35:28.204Z,5.19
2023-01-15T10:37:58.165Z,5.16
2023-01-15T10:40:34.298Z,5.10
2023-01-15T10:43:04.981Z,5.17
2023-01-15T10:45:35.743Z,5.23
2023-01-15T10:48:07.326Z,5.14
2023-01-15T10:50:36.416Z,5.12
2023-01-15T10:53:09.049Z,5.18
2023-01-15T10:55:39.754Z,5.13
2023-01-15T10:58:13.227Z,5.21
2023-01-15T11:00:41.280Z,5.16
2023-01-15T11:03:15.103Z,5.12
2023-01-15T11:05:45.707Z,5.30
2023-01-15T11:09:06.079Z,5.24
2023-01-15T11:11:17.244Z,5.23
2023-01-15T11:14:11.220Z,5.19
2023-01-15T11:16:53.615Z,5.26
2023-01-15T11:19:39.616Z,5.29
2023-01-15T11:22:12.646Z,5.26
2023-01-15T11:24:47.689Z,5.26
2023-01-15T11:27:17.839Z,5.36
2023-01-15T11:29:46.530Z,5.38
2023-01-15T11:32:23.510Z,5.41
2023-01-15T11:34:55.086Z,5.39
2023-01-15T11:37:23.960Z,5.50
2023-01-15T11:39:56.553Z,5.60
2023-01-15T11:42:41.895Z,5.55
2023-01-15T11:45:32.059Z,5.57
2023-01-15T11:48:17.540Z,5.61
2023-01-15T11:50:52.422Z,5.62
2023-01-15T11:56:10.871Z,5.72
2023-01-15T11:58:42.052Z,5.60
2023-01-15T12:01:09.602Z,5.62
2023-01-15T12:03:37.715Z,5.51
2023-01-15T12:06:06.942Z,5.63
2023-01-15T12:08:47.144Z,5.64
2023-01-15T12:11:27.533Z,5.59
2023-01-15T12:14:05.100Z,5.67
2023-01-15T12:16:36.967Z,5.69
2023-01-15T12:19:11.145Z,5.62
2023-01-15T12:21:59.164Z,5.69
2023-01-15T12:25:00.289Z,5.64
2023-01-15T12:28:03.175Z,5.62
2023-01-15T12:30:39.083Z,5.75
2023-01-15T12:33:17.646Z,5.84
2023-01-15T12:35:50.350Z,5.90
2023-01-15T12:38:23.651Z,5.87
2023-01-15T12:40:53.275Z,5.87
2023-01-15T12:43:42.175Z,5.87
2023-01-15T12:46:15.233Z,6.13
2023-01-15T12:48:47.580Z,6.10
2023-01-15T12:51:30.593Z,6.10
2023-01-15T12:54:01.617Z,6.03
2023-01-15T12:56:32.289Z,6.00
2023-01-15T12:59:05.599Z,5.99
2023-01-15T13:01:39.866Z,5.99
2023-01-15T13:04:13.636Z,6.07
2023-01-15T13:06:44.394Z,6.15
2023-01-15T13:09:19.823Z,6.15
2023-01-15T13:11:47.289Z,6.17
2023-01-15T13:14:16.469Z,6.13
2023-01-15T13:16:49.132Z,6.13
2023-01-15T13:19:24.518Z,6.17
2023-01-15T13:21:53.107Z,6.23
2023-01-15T13:24:58.194Z,6.16
2023-01-15T13:27:34.065Z,6.16
2023-01-15T13:30:13.184Z,6.28
2023-01-15T13:32:44.406Z,6.38
2023-01-15T13:35:15.286Z,6.38
2023-01-15T13:37:46.353Z,6.33
2023-01-15T13:40:19.269Z,6.24
2023-01-15T13:42:49.477Z,6.22
2023-01-15T13:45:38.301Z,6.31
2023-01-15T13:48:12.683Z,6.28
2023-01-15T13:50:43.348Z,6.32
2023-01-15T13:53:20.683Z,6.42
2023-01-15T13:55:52.566Z,6.47
2023-01-15T13:58:26.905Z,6.60
2023-01-15T14:01:09.797Z,6.73
2023-01-15T14:03:39.331Z,6.88
2023-01-15T14:06:08.556Z,6.83
2023-01-15T14:08:41.190Z,6.93
2023-01-15T14:11:31.760Z,6.91
2023-01-15T14:14:36.216Z,6.92
2023-01-15T14:17:23.606Z,6.89
2023-01-15T14:20:05.320Z,6.86
2023-01-15T14:22:52.200Z,6.93
2023-01-15T14:25:32.595Z,6.96
2023-01-15T14:28:13.734Z,6.96
2023-01-15T14:31:08.928Z,6.98
2023-01-15T14:33:47.081Z,6.93
2023-01-15T14:36:19.462Z,6.98
2023-01-15T14:38:49.411Z,6.96
2023-01-15T14:41:17.146Z,6.99
2023-01-15T14:43:49.894Z,6.94
2023-01-15T14:46:25.675Z,6.93
2023-01-15T14:48:53.444Z,6.96
2023-01-15T14:51:26.284Z,6.90
2023-01-15T14:53:56.981Z,6.88
2023-01-15T14:56:28.128Z,6.88
2023-01-15T14:58:58.344Z,6.84
2023-01-15T15:01:32.288Z,6.79
2023-01-15T15:04:04.321Z,6.87
2023-01-15T15:06:33.852Z,6.77
2023-01-15T15:09:05.463Z,6.79
2023-01-15T15:11:55.202Z,6.75
2023-01-15T15:14:23.139Z,6.84
2023-01-15T15:16:53.716Z,6.71
2023-01-15T15:19:28.122Z,6.67
2023-01-15T15:22:00.375Z,6.75
2023-01-15T15:24:30.367Z,6.76
2023-01-15T15:26:57.926Z,6.67
2023-01-15T15:29:25.398Z,6.67
2023-01-15T15:31:56.709Z,6.65
2023-01-15T15:34:29.016Z,6.61
2023-01-15T15:37:01.268Z,6.64
2023-01-15T15:39:35.728Z,6.59
2023-01-15T15:42:21.316Z,6.63
2023-01-15T15:45:09.255Z,6.56
2023-01-15T15:47:56.468Z,6.57
2023-01-15T15:50:25.367Z,6.59
2023-01-15T15:52:54.495Z,6.58
2023-01-15T15:55:22.761Z,6.40
2023-01-15T15:57:52.898Z,6.50
2023-01-15T16:00:23.573Z,6.47
2023-01-15T16:02:51.069Z,6.44
2023-01-15T16:05:23.866Z,6.50
2023-01-15T16:07:51.916Z,6.49
2023-01-15T16:10:25.329Z,6.39
2023-01-15T16:12:54.235Z,6.32
2023-01-15T16:15:24.349Z,6.45
2023-01-15T16:17:52.116Z,6.36
2023-01-15T16:20:20.508Z,6.37
2023-01-15T16:22:50.127Z,6.45
2023-01-15T16:25:27.370Z,6.29
2023-01-15T16:27:54.972Z,6.36
2023-01-15T16:30:22.932Z,6.23
2023-01-15T16:32:51.566Z,6.23
2023-01-15T16:35:22.447Z,6.14
2023-01-15T16:37:51.333Z,6.11
2023-01-15T16:40:26.781Z,6.02
2023-01-15T16:43:03.809Z,6.11
2023-01-15T16:45:31.635Z,5.98
2023-01-15T16:48:10.920Z,6.06
2023-01-15T16:50:39.152Z,6.08
2023-01-15T16:53:07.954Z,5.96
2023-01-15T16:55:39.325Z,6.14
2023-01-15T16:58:33.183Z,5.84
2023-01-15T17:01:02.351Z,5.81
2023-01-15T17:03:31.251Z,5.85
2023-01-15T17:06:02.277Z,5.94
2023-01-15T17:08:34.016Z,5.89
2023-01-15T17:11:04.629Z,5.87
2023-01-15T17:13:36.528Z,5.87
2023-01-15T17:16:07.833Z,5.74
2023-01-15T17:18:36.279Z,5.80
2023-01-15T17:21:04.043Z,5.68
2023-01-15T17:23:36.104Z,5.69
2023-01-15T17:26:06.482Z,5.69
2023-01-15T17:28:35.224Z,5.65
2023-01-15T17:31:03.632Z,5.62
2023-01-15T17:33:31.232Z,5.65
2023-01-15T17:36:01.129Z,5.60
2023-01-15T17:38:28.847Z,5.57
2023-01-15T17:40:59.871Z,5.50
2023-01-15T17:43:28.917Z,5.48
2023-01-15T17:45:56.477Z,5.43
2023-01-15T17:48:24.015Z,5.48
2023-01-15T17:50:51.856Z,5.55
2023-01-15T17:53:19.438Z,5.44
2023-01-15T17:56:04.614Z,5.39
2023-01-15T17:58:51.217Z,5.42
2023-01-15T18:01:38.257Z,5.34
2023-01-15T18:04:23.754Z,5.44
2023-01-15T18:06:54.446Z,5.37
2023-01-15T18:09:22.637Z,5.34
2023-01-15T18:11:50.189Z,5.27
2023-01-15T18:14:19.089Z,5.27
2023-01-15T18:16:46.765Z,5.37
2023-01-15T18:19:14.371Z,5.27
2023-01-15T18:21:42.094Z,5.31
2023-01-15T18:24:11.704Z,5.30
2023-01-15T18:26:39.782Z,5.34
2023-01-15T18:29:08.461Z,5.41
2023-01-15T18:31:38.716Z,5.47
2023-01-15T18:34:06.384Z,5.38
2023-01-15T18:36:34.205Z,5.37
2023-01-15T18:39:06.122Z,5.52
2023-01-15T18:41:52.412Z,5.47
2023-01-15T18:44:53.535Z,5.44
2023-01-15T18:47:23.825Z,5.49
2023-01-15T18:49:53.859Z,5.39
2023-01-15T18:52:39.438Z,5.42
2023-01-15T18:55:07.648Z,5.52
2023-01-15T18:57:35.190Z,5.55
2023-01-15T19:00:03.068Z,5.56
2023-01-15T19:02:32.038Z,5.47
2023-01-15T19:05:00.645Z,5.47
2023-01-15T19:07:28.318Z,5.52
2023-01-15T19:09:55.840Z,5.53
2023-01-15T19:12:23.361Z,5.52
2023-01-15T19:15:08.832Z,5.49
2023-01-15T19:17:55.411Z,5.56
2023-01-15T19:20:23.028Z,5.58
2023-01-15T19:22:59.825Z,5.72
2023-01-15T19:25:28.774Z,5.58
2023-01-15T19:27:57.917Z,5.62
2023-01-15T19:30:26.443Z,5.74
2023-01-15T19:32:55.365Z,5.67
2023-01-15T19:35:23.351Z,5.75
2023-01-15T19:37:51.005Z,5.73
2023-01-15T19:40:21.154Z,5.78
2023-01-15T19:43:06.123Z,5.80
2023-01-15T19:45:51.869Z,5.71
2023-01-15T19:48:39.119Z,5.74
2023-01-15T19:51:07.668Z,5.80
2023-01-15T19:53:35.677Z,5.73
2023-01-15T19:56:04.173Z,5.82
2023-01-15T19:58:33.814Z,5.78
2023-01-15T20:01:01.849Z,5.80
2023-01-15T20:03:31.211Z,5.82
2023-01-15T20:05:58.879Z,5.75
2023-01-15T20:08:26.573Z,5.81
2023-01-15T20:10:54.141Z,5.76
2023-01-15T20:13:41.605Z,5.73
2023-01-15T20:16:11.266Z,5.64
2023-01-15T20:18:40.695Z,5.76
2023-01-15T20:21:08.398Z,5.64
2023-01-15T20:23:37.285Z,5.60
2023-01-15T20:26:06.929Z,5.61
2023-01-15T20:28:35.863Z,5.59
2023-01-15T20:31:03.591Z,5.66
2023-01-15T20:33:31.336Z,5.60
2023-01-15T20:36:04.401Z,5.62
2023-01-15T20:38:32.133Z,5.44
2023-01-15T20:41:20.347Z,5.38
2023-01-15T20:44:05.552Z,5.31
2023-01-15T20:46:33.253Z,5.41
2023-01-15T20:49:18.669Z,5.18
2023-01-15T20:51:47.864Z,5.24
2023-01-15T20:54:15.575Z,5.39
2023-01-15T20:56:43.150Z,5.17
2023-01-15T20:59:10.734Z,5.24
2023-01-15T21:01:40.435Z,5.14
2023-01-15T21:04:09.719Z,4.98
2023-01-15T21:06:37.327Z,5.07
2023-01-15T21:09:06.644Z,5.09
2023-01-15T21:11:34.191Z,4.94
2023-01-15T21:14:01.870Z,4.98
2023-01-15T21:16:29.457Z,4.97
2023-01-15T21:18:59.020Z,5.01
2023-01-15T21:21:26.569Z,4.91
2023-01-15T21:23:54.120Z,4.78
2023-01-15T21:26:24.291Z,4.86
2023-01-15T21:28:53.951Z,4.82
2023-01-15T21:31:22.141Z,4.79
2023-01-15T21:33:49.764Z,4.88
2023-01-15T21:36:17.305Z,5.03
2023-01-15T21:38:44.804Z,4.92
2023-01-15T21:41:14.156Z,5.02
2023-01-15T21:44:01.598Z,5.01
2023-01-15T21:46:29.682Z,5.06
2023-01-15T21:48:58.383Z,4.89
2023-01-15T21:51:26.607Z,4.97
2023-01-15T21:53:54.578Z,4.88
2023-01-15T21:56:22.169Z,4.89
2023-01-15T21:58:51.039Z,4.87
2023-01-15T22:01:18.856Z,4.84
2023-01-15T22:03:46.795Z,4.79
2023-01-15T22:06:14.437Z,4.77
2023-01-15T22:08:41.984Z,4.78
2023-01-15T22:11:11.168Z,4.88
2023-01-15T22:13:40.615Z,4.79
2023-01-15T22:16:09.790Z,4.95
2023-01-15T22:18:37.390Z,5.04
2023-01-15T22:21:06.271Z,4.92
2023-01-15T22:23:34.356Z,4.89
2023-01-15T22:26:02.085Z,4.79
2023-01-15T22:28:29.684Z,4.74
2023-01-15T22:30:57.316Z,4.79
2023-01-15T22:33:26.424Z,4.86
2023-01-15T22:35:58.518Z,4.82
2023-01-15T22:38:26.171Z,4.75
2023-01-15T22:40:53.744Z,4.74
2023-01-15T22:43:22.602Z,4.69
2023-01-15T22:45:50.269Z,4.80
2023-01-15T22:48:17.836Z,4.92
2023-01-15T22:50:46.824Z,4.89
2023-01-15T22:53:14.468Z,4.92
2023-01-15T22:55:42.187Z,4.87
2023-01-15T22:58:09.963Z,4.92
2023-01-15T23:00:37.537Z,4.98
2023-01-15T23:03:07.935Z,4.99
2023-01-15T23:05:38.802Z,5.11
2023-01-15T23:08:08.573Z,5.07
2023-01-15T23:10:36.114Z,5.04
2023-01-15T23:13:03.682Z,5.03
2023-01-15T23:15:31.242Z,5.13
2023-01-15T23:17:58.814Z,5.16
2023-01-15T23:20:26.402Z,5.16
2023-01-15T23:22:54.032Z,5.21
2023-01-15T23:25:23.137Z,5.32
2023-01-15T23:27:50.813Z,5.27
2023-01-15T23:30:18.674Z,5.25
2023-01-15T23:32:48.157Z,5.21
2023-01-15T23:35:15.810Z,5.36
2023-01-15T23:37:43.432Z,5.32
2023-01-15T23:40:12.270Z,5.27
2023-01-15T23:42:58.752Z,5.09
2023-01-15T23:45:44.117Z,4.94
2023-01-15T23:48:12.825Z,4.71
2023-01-15T23:50:40.416Z,4.61
2023-01-15T23:53:08.091Z,4.50
2023-01-15T23:55:35.565Z,4.35
2023-01-15T23:58:04.541Z,4.34
